Time;durP1;ratioP1;P1;durP2;ratioP2;P2;SDS_P1;SDS_P2;PMS_P1;PMS_P2;Temp;Humidity;BMP_temperature;BMP_pressure;BME280_temperature;BME280_humidity;BME280_pressure;Samples;Min_cycle;Max_cycle;Signal;HPM_P1;HPM_P2
2022/02/16 00:02:11;;;;;;;4.43;1.40;;;;;;;-139.48;100.00;61774.03;5018668;28;20452;-72
2022/02/16 00:04:55;;;;;;;3.28;1.60;;;;;;;-139.48;100.00;61774.03;5018966;28;20530;-71
2022/02/16 00:07:43;;;;;;;4.03;1.85;;;;;;;-139.48;100.00;61774.03;5018310;28;20516;-73
2022/02/16 00:10:27;;;;;;;5.97;1.95;;;;;;;-139.48;100.00;61774.03;5019066;28;20180;-73
2022/02/16 00:13:11;;;;;;;4.63;1.70;;;;;;;-139.48;100.00;61774.03;5033314;28;20191;-73
2022/02/16 00:15:55;;;;;;;6.43;1.77;;;;;;;-139.48;100.00;61774.03;5033586;28;20048;-74
2022/02/16 00:18:39;;;;;;;4.47;1.90;;;;;;;-139.48;100.00;61774.03;5033283;28;20129;-73
2022/02/16 00:21:23;;;;;;;4.65;1.70;;;;;;;-139.48;100.00;61774.03;5033148;28;20404;-73
2022/02/16 00:24:07;;;;;;;2.38;1.75;;;;;;;-139.48;100.00;61774.03;5018392;28;20051;-73
2022/02/16 00:26:50;;;;;;;2.58;1.52;;;;;;;-139.48;100.00;61774.03;5032935;28;20052;-73
2022/02/16 00:29:34;;;;;;;3.22;1.67;;;;;;;-139.48;100.00;61774.03;5033272;28;20401;-72
2022/02/16 00:32:18;;;;;;;4.72;2.13;;;;;;;-139.48;100.00;61774.03;5033236;28;20056;-73
2022/02/16 00:35:02;;;;;;;3.30;1.58;;;;;;;-139.48;100.00;61774.03;5017987;28;20182;-74
2022/02/16 00:37:46;;;;;;;;;;;;;;;-139.48;100.00;61774.03;5018622;28;20516;-72
2022/02/16 00:40:30;;;;;;;2.30;1.87;;;;;;;-139.48;100.00;61774.03;5018143;28;20431;-72
2022/02/16 00:43:14;;;;;;;3.83;1.77;;;;;;;-139.48;100.00;61774.03;5033092;28;20098;-73
2022/02/16 00:45:58;;;;;;;4.70;2.45;;;;;;;-139.48;100.00;61774.03;5033064;28;20052;-73
2022/02/16 00:48:42;;;;;;;2.05;1.42;;;;;;;-139.48;100.00;61774.03;5018050;28;20091;-73
2022/02/16 00:51:25;;;;;;;4.35;1.50;;;;;;;-139.48;100.00;61774.03;5018241;28;20096;-73
2022/02/16 00:54:10;;;;;;;2.88;1.45;;;;;;;-139.48;100.00;61774.03;5033189;28;20048;-73
2022/02/16 00:56:57;;;;;;;4.78;1.60;;;;;;;-139.48;100.00;61774.03;5032490;28;20449;-74
2022/02/16 00:59:41;;;;;;;2.80;1.40;;;;;;;-139.48;100.00;61774.03;5032852;28;20048;-73
2022/02/16 01:02:28;;;;;;;4.15;1.35;;;;;;;-139.48;100.00;61774.03;5017945;28;20100;-74
2022/02/16 01:05:13;;;;;;;5.38;1.63;;;;;;;-139.48;100.00;61774.03;5032468;28;20508;-73
2022/02/16 01:07:57;;;;;;;2.85;1.33;;;;;;;-139.48;100.00;61774.03;5017467;28;20056;-73
2022/02/16 01:10:42;;;;;;;4.65;1.33;;;;;;;-139.48;100.00;61774.03;5017800;28;20048;-73
2022/02/16 01:13:26;;;;;;;2.53;1.35;;;;;;;-139.48;100.00;61774.03;5017722;28;20076;-73
2022/02/16 01:16:09;;;;;;;2.63;1.20;;;;;;;-139.48;100.00;61774.03;5032484;28;20099;-71
2022/02/16 01:18:53;;;;;;;5.95;1.65;;;;;;;-139.48;100.00;61774.03;5032415;28;20092;-74
2022/02/16 01:21:37;;;;;;;8.77;1.50;;;;;;;-139.48;100.00;61774.03;5032940;28;20476;-72
2022/02/16 01:24:21;;;;;;;5.82;1.58;;;;;;;-139.48;100.00;61774.03;5032886;28;20130;-73
2022/02/16 01:27:05;;;;;;;4.88;1.60;;;;;;;-139.48;100.00;61774.03;5017241;28;20048;-73
2022/02/16 01:29:49;;;;;;;1.08;0.95;;;;;;;-139.48;100.00;61774.03;5017544;28;20091;-74
2022/02/16 01:32:33;;;;;;;6.65;1.60;;;;;;;-139.48;100.00;61774.03;5017879;28;20052;-72
2022/02/16 01:35:17;;;;;;;;;;;;;;;-139.48;100.00;61774.03;5004105;28;20084;-73
2022/02/16 01:38:02;;;;;;;3.37;1.40;;;;;;;-139.48;100.00;61774.03;5003668;28;19939;-73
2022/02/16 01:40:46;;;;;;;2.67;1.30;;;;;;;-139.48;100.00;61774.03;5032509;28;20273;-74
2022/02/16 01:43:30;;;;;;;3.58;1.10;;;;;;;-139.48;100.00;61774.03;5032437;28;20052;-74
2022/02/16 01:46:15;;;;;;;3.88;1.83;;;;;;;-139.48;100.00;61774.03;5032056;28;20179;-73
2022/02/16 01:48:59;;;;;;;3.30;1.10;;;;;;;-139.48;100.00;61774.03;5017184;28;20064;-73
2022/02/16 01:51:44;;;;;;;3.97;1.25;;;;;;;-139.48;100.00;61774.03;5017196;28;20056;-73
2022/02/16 01:54:29;;;;;;;3.72;1.60;;;;;;;-139.48;100.00;61774.03;5017635;28;20049;-74
2022/02/16 01:57:13;;;;;;;5.43;1.70;;;;;;;-139.48;100.00;61774.03;5003223;28;20100;-73
2022/02/16 01:59:57;;;;;;;3.22;1.75;;;;;;;-139.48;100.00;61774.03;5017352;28;20051;-74
2022/02/16 02:02:42;;;;;;;;;;;;;;;-139.48;100.00;61774.03;5017660;28;20416;-75
2022/02/16 02:05:26;;;;;;;1.85;1.30;;;;;;;-139.48;100.00;61774.03;5032815;28;20272;-73
2022/02/16 02:08:10;;;;;;;;;;;;;;;-139.48;100.00;61774.03;5032544;28;20149;-74
2022/02/16 02:10:56;;;;;;;3.72;2.30;;;;;;;-139.48;100.00;61774.03;5017075;28;19936;-73
2022/02/16 02:14:02;;;;;;;4.95;1.30;;;;;;;-139.48;100.00;61774.03;5017424;28;20168;-74
2022/02/16 02:16:46;;;;;;;1.33;1.10;;;;;;;-139.48;100.00;61774.03;5019510;28;20056;-71
2022/02/16 02:19:30;;;;;;;4.28;1.83;;;;;;;-139.48;100.00;61774.03;5035763;28;20048;-74
2022/02/16 02:22:14;;;;;;;6.18;1.95;;;;;;;-139.48;100.00;61774.03;5020446;28;20056;-74
2022/02/16 02:24:57;;;;;;;4.00;1.52;;;;;;;-139.48;100.00;61774.03;5020629;28;20052;-73
2022/02/16 02:27:42;;;;;;;2.80;1.42;;;;;;;-139.48;100.00;61774.03;5020318;28;20048;-74
2022/02/16 02:30:26;;;;;;;5.00;1.40;;;;;;;-139.48;100.00;61774.03;5035429;28;20092;-74
2022/02/16 02:33:09;;;;;;;3.53;1.52;;;;;;;-139.48;100.00;61774.03;5020450;28;20099;-73
2022/02/16 02:35:53;;;;;;;4.68;2.03;;;;;;;-139.48;100.00;61774.03;5035664;28;20477;-73
2022/02/16 02:38:38;;;;;;;9.63;1.95;;;;;;;-139.48;100.00;61774.03;5006212;28;20146;-73
2022/02/16 02:41:24;;;;;;;4.85;2.00;;;;;;;-139.48;100.00;61774.03;5020000;28;20052;-73
2022/02/16 02:44:08;;;;;;;4.20;1.70;;;;;;;-139.48;100.00;61774.03;5006472;28;20052;-73
2022/02/16 02:46:53;;;;;;;3.75;1.63;;;;;;;-139.48;100.00;61774.03;5006095;28;20091;-74
2022/02/16 02:49:37;;;;;;;2.92;1.23;;;;;;;-139.48;100.00;61774.03;5035152;28;20049;-74
2022/02/16 02:52:21;;;;;;;;;;;;;;;-139.48;100.00;61774.03;5020743;28;20527;-73
2022/02/16 02:55:07;;;;;;;3.13;1.55;;;;;;;-139.48;100.00;61774.03;5035288;28;20437;-73
2022/02/16 02:57:51;;;;;;;7.20;1.48;;;;;;;-139.48;100.00;61774.03;5042955;22;20052;-74
2022/02/16 03:00:36;;;;;;;4.05;1.33;;;;;;;-139.48;100.00;61774.03;5015423;28;20565;-74
2022/02/16 03:03:20;;;;;;;4.47;2.13;;;;;;;-139.48;100.00;61774.03;5000249;28;20141;-75
2022/02/16 03:06:07;;;;;;;5.18;1.80;;;;;;;-139.48;100.00;61774.03;5015108;28;20052;-75
2022/02/16 03:08:51;;;;;;;3.72;1.60;;;;;;;-139.48;100.00;61774.03;5013928;28;20046;-75
2022/02/16 03:11:35;;;;;;;3.65;1.55;;;;;;;-139.48;100.00;61774.03;5014995;28;20092;-75
2022/02/16 03:14:19;;;;;;;2.83;1.45;;;;;;;-139.48;100.00;61774.03;5000210;28;20108;-75
2022/02/16 03:17:04;;;;;;;3.65;1.20;;;;;;;-139.48;100.00;61774.03;5014643;28;20509;-75
2022/02/16 03:19:48;;;;;;;5.28;1.70;;;;;;;-139.48;100.00;61774.03;5014528;28;20100;-75
2022/02/16 03:22:32;;;;;;;3.53;1.30;;;;;;;-139.48;100.00;61774.03;4999749;28;20417;-75
2022/02/16 03:25:16;;;;;;;1.77;1.10;;;;;;;-139.48;100.00;61774.03;4999862;28;20056;-75
2022/02/16 03:28:00;;;;;;;;;;;;;;;-139.48;100.00;61774.03;5013629;28;20180;-75
2022/02/16 03:30:44;;;;;;;2.67;1.15;;;;;;;-139.48;100.00;61774.03;5013385;28;20320;-75
2022/02/16 03:33:29;;;;;;;3.25;1.30;;;;;;;-139.48;100.00;61774.03;4999922;28;20052;-75
2022/02/16 03:36:14;;;;;;;4.90;1.00;;;;;;;-139.48;100.00;61774.03;4999690;28;20453;-75
2022/02/16 03:38:57;;;;;;;2.25;1.00;;;;;;;-139.48;100.00;61774.03;4999557;28;20088;-75
2022/02/16 03:41:43;;;;;;;5.30;1.20;;;;;;;-139.48;100.00;61774.03;4999544;28;20068;-75
2022/02/16 03:44:27;;;;;;;2.75;1.20;;;;;;;-139.48;100.00;61774.03;4985927;28;20087;-75
2022/02/16 03:47:10;;;;;;;3.40;1.00;;;;;;;-139.48;100.00;61774.03;5014217;28;20137;-75
2022/02/16 03:49:54;;;;;;;;;;;;;;;-139.48;100.00;61774.03;4999491;28;20111;-75
2022/02/16 03:52:38;;;;;;;4.40;1.25;;;;;;;-139.48;100.00;61774.03;5013020;28;19920;-75
2022/02/16 03:55:22;;;;;;;2.53;1.10;;;;;;;-139.48;100.00;61774.03;4999325;28;20088;-75
2022/02/16 03:58:06;;;;;;;2.58;0.95;;;;;;;-139.48;100.00;61774.03;4998870;28;20390;-75
2022/02/16 04:00:50;;;;;;;;;;;;;;;-139.48;100.00;61774.03;4999327;28;20520;-75
2022/02/16 04:03:34;;;;;;;3.58;1.10;;;;;;;-139.48;100.00;61774.03;5014025;28;19967;-75
2022/02/16 04:06:18;;;;;;;2.13;1.30;;;;;;;-139.48;100.00;61774.03;4999005;28;20057;-75
2022/02/16 04:09:02;;;;;;;2.15;1.13;;;;;;;-139.48;100.00;61774.03;4985160;28;20048;-75
2022/02/16 04:11:46;;;;;;;1.60;1.20;;;;;;;-139.48;100.00;61774.03;4998806;28;20103;-75
2022/02/16 04:14:30;;;;;;;2.75;1.08;;;;;;;-139.48;100.00;61774.03;5013897;28;20056;-75
2022/02/16 04:17:14;;;;;;;3.83;1.30;;;;;;;-139.48;100.00;61774.03;5014091;28;20114;-75
2022/02/16 04:19:58;;;;;;;3.28;1.02;;;;;;;-139.48;100.00;61774.03;5013416;28;20049;-75
2022/02/16 04:22:42;;;;;;;;;;;;;;;-139.48;100.00;61774.03;5013874;28;20100;-75
2022/02/16 04:25:26;;;;;;;;;;;;;;;-139.48;100.00;61774.03;5013039;28;19964;-75
2022/02/16 04:28:10;;;;;;;2.35;1.05;;;;;;;-139.48;100.00;61774.03;5013488;28;19924;-75
2022/02/16 04:30:54;;;;;;;2.35;0.90;;;;;;;-139.48;100.00;61774.03;5013408;28;20464;-75
2022/02/16 04:33:38;;;;;;;;;;;;;;;-139.48;100.00;61774.03;5013893;28;20545;-75
2022/02/16 04:36:25;;;;;;;1.60;0.93;;;;;;;-139.48;100.00;61774.03;5012540;28;19963;-75
2022/02/16 04:39:09;;;;;;;3.15;1.05;;;;;;;-139.48;100.00;61774.03;5013085;28;20290;-75
2022/02/16 04:41:53;;;;;;;0.63;0.63;;;;;;;-139.48;100.00;61774.03;5013350;28;20045;-75
2022/02/16 04:44:37;;;;;;;1.40;1.02;;;;;;;-139.48;100.00;61774.03;5013167;28;20052;-75
2022/02/16 04:47:21;;;;;;;1.30;1.10;;;;;;;-139.48;100.00;61774.03;4998290;28;20048;-75
2022/02/16 04:50:06;;;;;;;3.63;0.80;;;;;;;-139.48;100.00;61774.03;4998572;28;20123;-75
2022/02/16 04:52:54;;;;;;;3.00;1.02;;;;;;;-139.48;100.00;61774.03;4998270;28;20053;-75
2022/02/16 04:55:38;;;;;;;4.32;1.20;;;;;;;-139.48;100.00;61774.03;5013111;28;20049;-75
2022/02/16 04:58:22;;;;;;;1.63;0.82;;;;;;;-139.48;100.00;61774.03;4997831;28;20052;-75
2022/02/16 05:01:06;;;;;;;2.22;0.90;;;;;;;-139.48;100.00;61774.03;5012118;28;20049;-75
2022/02/16 05:03:50;;;;;;;;;;;;;;;-139.48;100.00;61774.03;4998648;28;20100;-75
2022/02/16 05:06:37;;;;;;;3.63;1.13;;;;;;;-139.48;100.00;61774.03;4997996;28;19920;-75
2022/02/16 05:09:21;;;;;;;3.63;0.73;;;;;;;-139.48;100.00;61774.03;4998440;28;20044;-75
2022/02/16 05:12:06;;;;;;;2.40;0.70;;;;;;;-139.48;100.00;61774.03;5013246;28;20358;-75
2022/02/16 05:14:50;;;;;;;2.40;0.90;;;;;;;-139.48;100.00;61774.03;5012820;28;20101;-75
2022/02/16 05:17:34;;;;;;;2.35;1.00;;;;;;;-139.48;100.00;61774.03;5012700;28;20048;-75
2022/02/16 05:20:18;;;;;;;2.58;1.10;;;;;;;-139.48;100.00;61774.03;4998027;28;20084;-74
2022/02/16 05:23:03;;;;;;;1.50;1.00;;;;;;;-139.48;100.00;61774.03;5012675;28;20071;-74
2022/02/16 05:25:47;;;;;;;1.48;0.90;;;;;;;-139.48;100.00;61774.03;4998350;28;20052;-74
2022/02/16 05:28:31;;;;;;;1.65;0.75;;;;;;;-139.48;100.00;61774.03;4997624;28;20061;-74
2022/02/16 05:31:15;;;;;;;1.42;1.00;;;;;;;-139.48;100.00;61774.03;4998045;28;20049;-74
2022/02/16 05:33:59;;;;;;;1.77;1.00;;;;;;;-139.48;100.00;61774.03;4997939;28;20064;-74
2022/02/16 05:36:44;;;;;;;2.05;0.60;;;;;;;-139.48;100.00;61774.03;4997923;28;20073;-74
2022/02/16 05:39:28;;;;;;;1.48;0.65;;;;;;;-139.48;100.00;61774.03;4997646;28;20147;-74
2022/02/16 05:42:12;;;;;;;;;;;;;;;-139.48;100.00;61774.03;4998368;28;20107;-74
2022/02/16 05:44:56;;;;;;;1.77;0.88;;;;;;;-139.48;100.00;61774.03;5011953;28;19921;-74
2022/02/16 05:47:40;;;;;;;;;;;;;;;-139.48;100.00;61774.03;4998203;28;20052;-74
2022/02/16 05:50:23;;;;;;;2.45;1.00;;;;;;;-139.48;100.00;61774.03;5013029;28;19921;-74
2022/02/16 05:53:07;;;;;;;1.17;0.73;;;;;;;-139.48;100.00;61774.03;5001583;28;20052;-74
2022/02/16 05:55:51;;;;;;;2.20;0.80;;;;;;;-139.48;100.00;61774.03;5001816;28;20153;-74
2022/02/16 05:58:35;;;;;;;;;;;;;;;-139.48;100.00;61774.03;5001418;28;20413;-74
2022/02/16 06:01:19;;;;;;;3.23;0.83;;;;;;;-139.48;100.00;61774.03;5016759;28;19920;-74
2022/02/16 06:04:03;;;;;;;;;;;;;;;-139.48;100.00;61774.03;5016607;28;20494;-74
2022/02/16 06:06:47;;;;;;;0.93;0.80;;;;;;;-139.48;100.00;61774.03;5001035;28;19987;-74
2022/02/16 06:09:31;;;;;;;0.73;0.70;;;;;;;-139.48;100.00;61774.03;5016167;28;20160;-74
2022/02/16 06:12:15;;;;;;;3.05;0.98;;;;;;;-139.48;100.00;61774.03;5001176;28;20099;-74
2022/02/16 06:14:58;;;;;;;1.40;0.88;;;;;;;-139.48;100.00;61774.03;5016059;28;20051;-74
2022/02/16 06:17:42;;;;;;;2.35;1.00;;;;;;;-139.48;100.00;61774.03;5001095;28;20053;-73
2022/02/16 06:20:26;;;;;;;0.70;0.70;;;;;;;-139.48;100.00;61774.03;5000816;28;20558;-74
2022/02/16 06:23:10;;;;;;;2.15;0.80;;;;;;;-139.48;100.00;61774.03;5000941;28;20053;-74
2022/02/16 06:25:54;;;;;;;1.35;0.70;;;;;;;-139.48;100.00;61774.03;5015874;28;20052;-74
2022/02/16 06:28:39;;;;;;;2.97;0.90;;;;;;;-139.48;100.00;61774.03;5015626;28;20524;-74
2022/02/16 06:31:23;;;;;;;0.40;0.40;;;;;;;-139.48;100.00;61774.03;5015542;28;20426;-74
2022/02/16 06:34:07;;;;;;;1.20;0.68;;;;;;;-139.48;100.00;61774.03;5015698;28;20414;-74
2022/02/16 06:36:51;;;;;;;;;;;;;;;-139.48;100.00;61774.03;5000872;28;20053;-73
2022/02/16 06:39:35;;;;;;;0.65;0.60;;;;;;;-139.48;100.00;61774.03;5014627;28;19927;-74
2022/02/16 06:42:20;;;;;;;2.67;0.80;;;;;;;-139.48;100.00;61774.03;5000430;28;20055;-74
2022/02/16 06:45:05;;;;;;;1.77;0.70;;;;;;;-139.48;100.00;61774.03;5000689;28;20065;-74
2022/02/16 06:47:49;;;;;;;1.20;0.60;;;;;;;-139.48;100.00;61774.03;5000357;28;20103;-74
2022/02/16 06:50:33;;;;;;;0.70;0.68;;;;;;;-139.48;100.00;61774.03;5000525;28;20063;-74
2022/02/16 06:53:17;;;;;;;1.35;0.50;;;;;;;-139.48;100.00;61774.03;5000537;28;20071;-73
2022/02/16 06:56:01;;;;;;;;;;;;;;;-139.48;100.00;61774.03;5000572;28;20064;-74
2022/02/16 06:58:45;;;;;;;0.87;0.60;;;;;;;-139.48;100.00;61774.03;5014994;28;19923;-74
2022/02/16 07:01:29;;;;;;;0.50;0.50;;;;;;;-139.48;100.00;61774.03;4999879;28;20263;-73
2022/02/16 07:04:13;;;;;;;1.00;0.40;;;;;;;-139.48;100.00;61774.03;5015162;28;20053;-74
2022/02/16 07:06:56;;;;;;;1.52;0.88;;;;;;;-139.48;100.00;61774.03;5015040;28;20362;-74
2022/02/16 07:09:40;;;;;;;1.02;0.50;;;;;;;-139.48;100.00;61774.03;5014781;28;20053;-74
2022/02/16 07:12:24;;;;;;;2.67;0.70;;;;;;;-139.48;100.00;61774.03;5000132;28;20057;-74
2022/02/16 07:15:11;;;;;;;;;;;;;;;-139.48;100.00;61774.03;5015062;28;20129;-74
2022/02/16 07:17:55;;;;;;;0.80;0.70;;;;;;;-139.48;100.00;61774.03;5013690;28;20024;-74
2022/02/16 07:20:39;;;;;;;1.65;0.65;;;;;;;-139.48;100.00;61774.03;5014839;28;20044;-74
2022/02/16 07:23:22;;;;;;;0.88;0.40;;;;;;;-139.48;100.00;61774.03;4999897;28;20056;-74
2022/02/16 07:26:07;;;;;;;0.90;0.60;;;;;;;-139.48;100.00;61774.03;4999555;28;20140;-74
2022/02/16 07:28:50;;;;;;;1.38;0.70;;;;;;;-139.48;100.00;61774.03;4999729;28;20402;-74
2022/02/16 07:31:34;;;;;;;0.80;0.70;;;;;;;-139.48;100.00;61774.03;4999530;28;20484;-74
2022/02/16 07:34:19;;;;;;;1.90;0.50;;;;;;;-139.48;100.00;61774.03;4999590;28;20044;-74
2022/02/16 07:37:03;;;;;;;1.05;0.70;;;;;;;-139.48;100.00;61774.03;4999681;28;20107;-74
2022/02/16 07:39:47;;;;;;;1.38;0.68;;;;;;;-139.48;100.00;61774.03;5014152;28;20512;-74
2022/02/16 07:42:31;;;;;;;1.65;0.90;;;;;;;-139.48;100.00;61774.03;4999590;28;20448;-74
2022/02/16 07:45:15;;;;;;;1.27;0.82;;;;;;;-139.48;100.00;61774.03;4985873;28;20079;-74
2022/02/16 07:48:00;;;;;;;3.72;0.85;;;;;;;-139.48;100.00;61774.03;4999301;28;20049;-74
2022/02/16 07:50:44;;;;;;;1.15;0.80;;;;;;;-139.48;100.00;61774.03;4999281;28;20045;-75
2022/02/16 07:53:28;;;;;;;1.13;0.82;;;;;;;-139.48;100.00;61774.03;4999129;28;20107;-76
2022/02/16 07:56:11;;;;;;;2.80;1.13;;;;;;;-139.48;100.00;61774.03;4999095;28;20080;-76
2022/02/16 07:58:55;;;;;;;2.63;1.00;;;;;;;-139.48;100.00;61774.03;4998712;28;20524;-75
2022/02/16 08:01:39;;;;;;;1.73;0.88;;;;;;;-139.48;100.00;61774.03;4998988;28;20049;-75
2022/02/16 08:04:24;;;;;;;;;;;;;;;-139.48;100.00;61774.03;5014197;28;20104;-75
2022/02/16 08:07:07;;;;;;;0.85;0.85;;;;;;;-139.48;100.00;61774.03;5013063;28;20293;-76
2022/02/16 08:09:52;;;;;;;;;;;;;;;-139.48;100.00;61774.03;5014056;28;20061;-75
2022/02/16 08:12:47;;;;;;;1.30;0.60;;;;;;;-139.48;100.00;61774.03;4998798;28;19967;-75
2022/02/16 08:15:36;;;;;;;0.95;0.85;;;;;;;-139.48;100.00;61774.03;5013513;28;20044;-76
2022/02/16 08:18:20;;;;;;;0.73;0.50;;;;;;;-139.48;100.00;61774.03;5013715;28;20041;-76
2022/02/16 08:21:03;;;;;;;1.48;0.75;;;;;;;-139.48;100.00;61774.03;4998608;28;20049;-75
2022/02/16 08:23:47;;;;;;;1.45;0.65;;;;;;;-139.48;100.00;61774.03;5013501;28;20072;-75
2022/02/16 08:26:31;;;;;;;3.05;0.60;;;;;;;-139.48;100.00;61774.03;4998657;28;20467;-75
2022/02/16 08:29:16;;;;;;;0.60;0.60;;;;;;;-139.48;100.00;61774.03;4998888;28;20048;-75
2022/02/16 08:32:00;;;;;;;0.70;0.60;;;;;;;-139.48;100.00;61774.03;5013386;28;20076;-76
2022/02/16 08:34:44;;;;;;;2.92;0.55;;;;;;;-139.48;100.00;61774.03;4998642;28;20453;-76
2022/02/16 08:37:28;;;;;;;1.00;0.70;;;;;;;-139.48;100.00;61774.03;5012192;28;20100;-76
2022/02/16 08:40:12;;;;;;;;;;;;;;;-139.48;100.00;61774.03;5013850;28;20575;-75
2022/02/16 08:42:56;;;;;;;1.00;0.70;;;;;;;-139.48;100.00;61774.03;5012178;28;19920;-75
2022/02/16 08:45:40;;;;;;;1.45;0.60;;;;;;;-139.48;100.00;61774.03;5013308;28;20207;-76
2022/02/16 08:48:25;;;;;;;1.30;0.63;;;;;;;-139.48;100.00;61774.03;5013368;28;20451;-75
2022/02/16 08:51:10;;;;;;;1.05;0.88;;;;;;;-139.48;100.00;61774.03;4998320;28;20049;-75
2022/02/16 08:53:54;;;;;;;1.38;0.80;;;;;;;-139.48;100.00;61774.03;5012923;28;20101;-75
2022/02/16 08:56:38;;;;;;;1.50;0.90;;;;;;;-139.48;100.00;61774.03;4998097;28;20064;-75
2022/02/16 08:59:22;;;;;;;0.70;0.60;;;;;;;-139.48;100.00;61774.03;4997958;28;20077;-75
2022/02/16 09:02:07;;;;;;;1.25;0.60;;;;;;;-139.48;100.00;61774.03;4998265;28;20056;-74
2022/02/16 09:04:51;;;;;;;0.63;0.60;;;;;;;-139.48;100.00;61774.03;5013174;28;20125;-75
2022/02/16 09:07:35;;;;;;;;;;;;;;;-139.48;100.00;61774.03;5040865;22;20061;-71
2022/02/16 09:10:18;;;;;;;1.67;0.50;;;;;;;-139.48;100.00;61774.03;5032569;28;19936;-71
2022/02/16 09:13:02;;;;;;;6.13;0.90;;;;;;;-139.48;100.00;61774.03;5032948;28;20098;-70
2022/02/16 09:15:47;;;;;;;0.90;0.60;;;;;;;-139.48;100.00;61774.03;5003510;28;20052;-71
2022/02/16 09:18:31;;;;;;;1.45;0.50;;;;;;;-139.48;100.00;61774.03;5032637;28;20040;-71
2022/02/16 09:21:18;;;;;;;0.50;0.50;;;;;;;-139.48;100.00;61774.03;5032445;28;20240;-71
2022/02/16 09:24:03;;;;;;;0.70;0.50;;;;;;;-139.48;100.00;61774.03;5018003;28;20345;-71
2022/02/16 09:26:50;;;;;;;0.68;0.60;;;;;;;-139.48;100.00;61774.03;5021387;28;20111;-70
2022/02/16 09:29:34;;;;;;;1.15;0.60;;;;;;;-139.48;100.00;61774.03;5022047;28;20052;-71
2022/02/16 09:32:19;;;;;;;0.60;0.60;;;;;;;-139.48;100.00;61774.03;5021346;28;20048;-71
2022/02/16 09:35:04;;;;;;;0.77;0.57;;;;;;;-139.48;100.00;61774.03;5036841;28;20052;-71
2022/02/16 09:37:48;;;;;;;0.68;0.60;;;;;;;-139.48;100.00;61774.03;5036270;28;20465;-71
2022/02/16 09:40:32;;;;;;;0.50;0.50;;;;;;;-139.48;100.00;61774.03;5021424;28;20532;-71
2022/02/16 09:43:21;;;;;;;0.85;0.70;;;;;;;-139.48;100.00;61774.03;5036387;28;20115;-71
2022/02/16 09:46:05;;;;;;;0.82;0.60;;;;;;;-139.48;100.00;61774.03;5007566;28;20136;-69
2022/02/16 09:48:50;;;;;;;0.70;0.40;;;;;;;-139.48;100.00;61774.03;5035993;28;20176;-72
2022/02/16 09:51:34;;;;;;;1.35;0.52;;;;;;;-139.48;100.00;61774.03;5021275;28;20047;-71
2022/02/16 09:54:18;;;;;;;1.25;0.68;;;;;;;-139.48;100.00;61774.03;5035916;28;20102;-71
2022/02/16 09:57:02;;;;;;;0.82;0.68;;;;;;;-139.48;100.00;61774.03;5021135;28;20064;-71
2022/02/16 09:59:46;;;;;;;0.50;0.50;;;;;;;-139.48;100.00;61774.03;5021374;28;20052;-70
2022/02/16 10:02:38;;;;;;;0.55;0.50;;;;;;;-139.48;100.00;61774.03;5035849;28;20052;-71
2022/02/16 10:05:33;;;;;;;0.80;0.50;;;;;;;-139.48;100.00;61774.03;5020744;28;20091;-71
2022/02/16 10:08:50;;;;;;;0.40;0.40;;;;;;;-139.48;100.00;61774.03;5020844;28;20053;-71
2022/02/16 10:11:34;;;;;;;0.60;0.50;;;;;;;-139.48;100.00;61774.03;4987686;28;20040;-71
2022/02/16 10:14:21;;;;;;;2.60;0.55;;;;;;;-139.48;100.00;61774.03;5035857;28;20057;-70
2022/02/16 10:17:21;;;;;;;1.98;0.70;;;;;;;-139.48;100.00;61774.03;5020762;28;20118;-71
2022/02/16 10:20:07;;;;;;;0.57;0.52;;;;;;;-139.48;100.00;61774.03;5021014;28;20104;-71
2022/02/16 10:22:56;;;;;;;0.85;0.60;;;;;;;-139.48;100.00;61774.03;5006681;28;20436;-72
2022/02/16 10:25:48;;;;;;;0.77;0.60;;;;;;;-139.48;100.00;61774.03;5035657;28;20137;-71
2022/02/16 10:28:43;;;;;;;0.98;0.60;;;;;;;-139.48;100.00;61774.03;5020436;28;20417;-72
2022/02/16 10:31:27;;;;;;;;;;;;;;;-139.48;100.00;61774.03;5036132;28;20044;-71
2022/02/16 10:34:11;;;;;;;0.43;0.43;;;;;;;-139.48;100.00;61774.03;5006344;28;19919;-71
2022/02/16 10:37:07;;;;;;;0.77;0.63;;;;;;;-139.48;100.00;61774.03;5019591;28;20052;-71
2022/02/16 10:40:18;;;;;;;1.00;0.45;;;;;;;-139.48;100.00;61774.03;5020608;28;20087;-71
2022/02/16 10:43:02;;;;;;;0.40;0.40;;;;;;;-139.48;100.00;61774.03;5035302;28;20098;-72
2022/02/16 10:45:47;;;;;;;1.00;0.55;;;;;;;-139.48;100.00;61774.03;5035143;28;20044;-70
2022/02/16 10:48:31;;;;;;;0.60;0.50;;;;;;;-139.48;100.00;61774.03;5006278;28;20072;-73
2022/02/16 10:51:19;;;;;;;0.50;0.50;;;;;;;-139.48;100.00;61774.03;5020196;28;20087;-73
2022/02/16 10:54:18;;;;;;;0.43;0.43;;;;;;;-139.48;100.00;61774.03;5006178;28;20571;-73
2022/02/16 10:57:02;;;;;;;0.60;0.60;;;;;;;-139.48;100.00;61774.03;5020015;28;20474;-73
2022/02/16 10:59:47;;;;;;;0.40;0.40;;;;;;;-139.48;100.00;61774.03;5020022;28;20409;-72
2022/02/16 11:02:31;;;;;;;0.60;0.60;;;;;;;-139.48;100.00;61774.03;5019942;28;20098;-72
2022/02/16 11:05:18;;;;;;;0.50;0.50;;;;;;;-139.48;100.00;61774.03;5019986;28;20052;-72
2022/02/16 11:08:02;;;;;;;0.88;0.73;;;;;;;-139.48;100.00;61774.03;5019460;28;20100;-72
2022/02/16 11:10:47;;;;;;;0.70;0.60;;;;;;;-139.48;100.00;61774.03;5019606;28;20047;-72
2022/02/16 11:13:33;;;;;;;0.60;0.60;;;;;;;-139.48;100.00;61774.03;5019811;28;20122;-72
2022/02/16 11:16:17;;;;;;;0.93;0.70;;;;;;;-139.48;100.00;61774.03;5034881;28;20146;-71
2022/02/16 11:19:19;;;;;;;1.88;0.75;;;;;;;-139.48;100.00;61774.03;5020069;28;20071;-72
2022/02/16 11:22:21;;;;;;;0.98;0.60;;;;;;;-139.48;100.00;61774.03;5034275;28;20052;-71
2022/02/16 11:25:25;;;;;;;1.92;0.60;;;;;;;-139.48;100.00;61774.03;5020136;28;20081;-72
2022/02/16 11:28:13;;;;;;;0.80;0.70;;;;;;;-139.48;100.00;61774.03;5034219;28;20508;-72
2022/02/16 11:30:57;;;;;;;0.77;0.77;;;;;;;-139.48;100.00;61774.03;5033991;28;20044;-72
2022/02/16 11:33:41;;;;;;;2.15;0.80;;;;;;;-139.48;100.00;61774.03;5005875;28;20052;-72
2022/02/16 11:36:54;;;;;;;2.70;0.90;;;;;;;-139.48;100.00;61774.03;5005333;28;20052;-72
2022/02/16 11:39:59;;;;;;;2.50;0.90;;;;;;;-139.48;100.00;61774.03;5034309;28;20051;-73
2022/02/16 11:42:46;;;;;;;1.10;1.00;;;;;;;-139.48;100.00;61774.03;5019211;28;20099;-72
2022/02/16 11:45:39;;;;;;;1.13;1.00;;;;;;;-139.48;100.00;61774.03;5034219;28;20055;-72
2022/02/16 11:48:48;;;;;;;1.77;1.00;;;;;;;-139.48;100.00;61774.03;5003982;28;20083;-72
2022/02/16 11:51:35;;;;;;;4.43;1.23;;;;;;;-139.48;100.00;61774.03;5019545;28;20072;-72
2022/02/16 11:54:42;;;;;;;1.77;0.95;;;;;;;-139.48;100.00;61774.03;5018986;28;20059;-73
2022/02/16 11:57:29;;;;;;;1.40;1.10;;;;;;;-139.48;100.00;61774.03;5033597;28;20043;-73
2022/02/16 12:00:18;;;;;;;2.05;1.20;;;;;;;-139.48;100.00;61774.03;5033941;28;20103;-74
2022/02/16 12:03:05;;;;;;;1.13;1.02;;;;;;;-139.48;100.00;61774.03;5034080;28;20405;-75
2022/02/16 12:06:00;;;;;;;2.17;1.30;;;;;;;-139.48;100.00;61774.03;5018386;28;20047;-72
2022/02/16 12:08:54;;;;;;;1.50;1.40;;;;;;;-139.48;100.00;61774.03;5004485;28;20127;-72
2022/02/16 12:11:40;;;;;;;1.40;1.30;;;;;;;-139.48;100.00;61774.03;5018308;28;20059;-73
2022/02/16 12:14:24;;;;;;;1.60;1.50;;;;;;;-139.48;100.00;61774.03;5033533;28;20563;-71
2022/02/16 12:17:08;;;;;;;1.45;1.30;;;;;;;-139.48;100.00;61774.03;5033249;28;20501;-74
2022/02/16 12:19:52;;;;;;;1.40;1.30;;;;;;;-139.48;100.00;61774.03;5018480;28;20088;-73
2022/02/16 12:22:38;;;;;;;1.85;1.33;;;;;;;-139.48;100.00;61774.03;5033370;28;20413;-73
2022/02/16 12:25:22;;;;;;;2.08;1.40;;;;;;;-139.48;100.00;61774.03;5018870;28;20139;-72
2022/02/16 12:28:06;;;;;;;1.48;1.20;;;;;;;-139.48;100.00;61774.03;5032926;28;20180;-72
2022/02/16 12:30:50;;;;;;;3.22;1.50;;;;;;;-139.48;100.00;61774.03;5033239;28;20053;-72
2022/02/16 12:33:34;;;;;;;1.55;1.40;;;;;;;-139.48;100.00;61774.03;5032971;28;20128;-73
2022/02/16 12:36:18;;;;;;;1.77;1.20;;;;;;;-139.48;100.00;61774.03;5018134;28;20047;-73
2022/02/16 12:39:04;;;;;;;1.55;1.38;;;;;;;-139.48;100.00;61774.03;5018279;28;20091;-72